createdAt,value
2022-08-07T00:01:44.132Z,1.00
2022-08-07T00:04:04.533Z,1.10
2022-08-07T00:06:33.964Z,1.13
2022-08-07T00:09:16.675Z,1.00
2022-08-07T00:11:48.049Z,0.85
2022-08-07T00:14:25.433Z,0.90
2022-08-07T00:16:53.542Z,1.00
2022-08-07T00:19:21.784Z,1.00
2022-08-07T00:21:57.027Z,0.90
2022-08-07T00:24:29.197Z,1.08
2022-08-07T00:27:07.630Z,1.20
2022-08-07T00:29:37.141Z,0.88
2022-08-07T00:32:05.791Z,0.85
2022-08-07T00:34:33.525Z,0.98
2022-08-07T00:37:05.198Z,1.13
2022-08-07T00:39:32.864Z,0.88
2022-08-07T00:42:01.322Z,1.10
2022-08-07T00:44:29.933Z,0.98
2022-08-07T00:46:57.267Z,1.42
2022-08-07T00:50:19.950Z,1.00
2022-08-07T00:52:14.478Z,1.20
2022-08-07T00:54:45.475Z,1.10
2022-08-07T00:57:13.541Z,1.20
2022-08-07T00:59:42.136Z,1.25
2022-08-07T01:02:14.121Z,0.90
2022-08-07T01:04:58.345Z,0.90
2022-08-07T01:07:27.522Z,1.10
2022-08-07T01:10:05.669Z,1.08
2022-08-07T01:12:35.336Z,1.10
2022-08-07T01:15:04.485Z,1.05
2022-08-07T01:17:32.855Z,1.20
2022-08-07T01:20:03.869Z,1.10
2022-08-07T01:22:31.803Z,1.30
2022-08-07T01:24:59.711Z,1.20
2022-08-07T01:27:32.315Z,1.10
2022-08-07T01:30:00.710Z,1.40
2022-08-07T01:32:28.775Z,1.30
2022-08-07T01:34:57.214Z,1.00
2022-08-07T01:37:25.027Z,0.93
2022-08-07T01:39:53.122Z,0.90
2022-08-07T01:42:40.043Z,1.35
2022-08-07T01:45:09.674Z,0.90
2022-08-07T01:48:17.892Z,1.38
2022-08-07T01:50:31.321Z,0.80
2022-08-07T01:52:59.742Z,1.15
2022-08-07T01:55:33.481Z,1.20
2022-08-07T01:58:06.562Z,1.10
2022-08-07T02:00:52.319Z,1.10
2022-08-07T02:03:48.984Z,1.10
2022-08-07T02:06:31.905Z,1.10
2022-08-07T02:09:01.234Z,1.00
2022-08-07T02:12:02.941Z,1.08
2022-08-07T02:14:40.312Z,1.00
2022-08-07T02:17:08.253Z,1.17
2022-08-07T02:20:07.241Z,1.10
2022-08-07T02:22:26.130Z,0.90
2022-08-07T02:24:56.882Z,0.82
2022-08-07T02:27:26.701Z,0.88
2022-08-07T02:30:04.007Z,1.00
2022-08-07T02:32:39.436Z,0.93
2022-08-07T02:35:10.880Z,0.88
2022-08-07T02:37:44.103Z,1.20
2022-08-07T02:40:31.077Z,1.05
2022-08-07T02:43:00.127Z,1.13
2022-08-07T02:45:58.192Z,1.02
2022-08-07T02:48:16.486Z,1.20
2022-08-07T02:50:46.035Z,1.10
2022-08-07T02:53:27.393Z,1.30
2022-08-07T02:56:03.977Z,1.17
2022-08-07T02:58:34.267Z,1.10
2022-08-07T03:01:03.106Z,1.40
2022-08-07T03:03:50.083Z,1.10
2022-08-07T03:06:25.546Z,1.90
2022-08-07T03:08:56.083Z,1.08
2022-08-07T03:11:25.213Z,1.33
2022-08-07T03:13:57.492Z,1.08
2022-08-07T03:16:29.308Z,1.10
2022-08-07T03:18:58.490Z,1.00
2022-08-07T03:21:26.353Z,1.15
2022-08-07T03:24:20.465Z,1.25
2022-08-07T03:26:58.305Z,1.10
2022-08-07T03:29:28.340Z,1.20
2022-08-07T03:31:56.863Z,1.23
2022-08-07T03:34:27.319Z,1.13
2022-08-07T03:36:55.172Z,1.20
2022-08-07T03:39:46.249Z,1.10
2022-08-07T03:42:12.605Z,1.20
2022-08-07T03:44:40.209Z,1.23
2022-08-07T03:47:13.063Z,1.30
2022-08-07T03:49:42.240Z,1.23
2022-08-07T03:52:22.686Z,1.17
2022-08-07T03:54:57.313Z,1.33
2022-08-07T03:58:34.574Z,1.02
2022-08-07T04:00:30.271Z,1.10
2022-08-07T04:02:59.389Z,1.05
2022-08-07T04:05:39.701Z,1.40
2022-08-07T04:08:16.004Z,1.30
2022-08-07T04:10:54.774Z,1.42
2022-08-07T04:14:10.491Z,1.08
2022-08-07T04:16:31.445Z,1.13
2022-08-07T04:19:01.739Z,1.00
2022-08-07T04:21:31.939Z,1.20
2022-08-07T04:24:05.931Z,1.13
2022-08-07T04:26:35.466Z,1.15
2022-08-07T04:29:03.189Z,1.10
2022-08-07T04:31:38.914Z,1.30
2022-08-07T04:34:24.154Z,2.00
2022-08-07T04:37:01.638Z,1.40
2022-08-07T04:39:35.659Z,1.60
2022-08-07T04:42:04.125Z,1.10
2022-08-07T04:44:31.698Z,2.10
2022-08-07T04:47:57.272Z,1.27
2022-08-07T04:50:23.422Z,1.20
2022-08-07T04:52:52.149Z,1.15
2022-08-07T04:58:13.924Z,1.33
2022-08-07T04:58:47.296Z,1.00
2022-08-07T05:01:14.219Z,1.10
2022-08-07T05:04:07.091Z,0.95
2022-08-07T05:06:51.239Z,1.92
2022-08-07T05:09:42.954Z,0.90
2022-08-07T05:12:15.570Z,1.10
2022-08-07T05:15:03.562Z,1.50
2022-08-07T05:17:51.753Z,1.00
2022-08-07T05:20:25.802Z,1.17
2022-08-07T05:22:56.008Z,1.23
2022-08-07T05:25:25.615Z,0.90
2022-08-07T05:28:20.443Z,1.30
2022-08-07T05:30:50.813Z,1.20
2022-08-07T05:33:20.852Z,1.00
2022-08-07T05:35:49.807Z,1.33
2022-08-07T05:38:59.923Z,1.08
2022-08-07T05:41:12.450Z,1.10
2022-08-07T05:44:07.629Z,1.10
2022-08-07T05:46:31.700Z,1.25
2022-08-07T05:48:59.750Z,1.20
2022-08-07T05:51:31.550Z,1.10
2022-08-07T05:54:12.226Z,1.30
2022-08-07T05:56:48.300Z,1.50
2022-08-07T05:59:20.745Z,1.10
2022-08-07T06:01:49.003Z,0.80
2022-08-07T06:04:17.690Z,1.00
2022-08-07T06:06:46.142Z,1.55
2022-08-07T06:09:16.456Z,0.90
2022-08-07T06:11:44.069Z,1.20
2022-08-07T06:14:21.378Z,2.13
2022-08-07T06:16:57.140Z,1.05
2022-08-07T06:19:57.513Z,1.00
2022-08-07T06:22:22.603Z,1.45
2022-08-07T06:24:57.748Z,0.75
2022-08-07T06:27:43.968Z,1.10
2022-08-07T06:30:24.317Z,0.73
2022-08-07T06:33:03.936Z,1.00
2022-08-07T06:35:45.745Z,0.90
2022-08-07T06:38:19.312Z,0.75
2022-08-07T06:40:50.198Z,0.88
2022-08-07T06:43:21.262Z,0.88
2022-08-07T06:45:49.910Z,0.70
2022-08-07T06:48:24.825Z,0.82
2022-08-07T06:50:54.130Z,0.70
2022-08-07T06:55:28.312Z,0.90
2022-08-07T06:56:14.736Z,0.80
2022-08-07T07:00:13.059Z,0.90
2022-08-07T07:01:33.150Z,0.77
2022-08-07T07:04:28.122Z,0.80
2022-08-07T07:07:01.222Z,0.60
2022-08-07T07:09:31.316Z,1.00
2022-08-07T07:12:16.618Z,0.65
2022-08-07T07:14:52.464Z,0.60
2022-08-07T07:17:45.202Z,0.50
2022-08-07T07:20:17.320Z,0.60
2022-08-07T07:24:09.878Z,0.65
2022-08-07T07:26:32.488Z,0.50
2022-08-07T07:28:29.665Z,0.73
2022-08-07T07:31:39.841Z,0.95
2022-08-07T07:34:09.549Z,0.30
2022-08-07T07:36:40.498Z,0.50
2022-08-07T07:39:08.576Z,0.50
2022-08-07T07:42:02.136Z,0.43
2022-08-07T07:44:26.495Z,0.52
2022-08-07T07:47:04.406Z,0.40
2022-08-07T07:50:35.828Z,0.50
2022-08-07T07:52:32.453Z,0.47
2022-08-07T07:55:00.137Z,0.47
2022-08-07T07:57:28.104Z,0.50
2022-08-07T08:00:20.943Z,0.70
2022-08-07T08:03:06.087Z,0.50
2022-08-07T08:05:42.835Z,1.13
2022-08-07T08:08:35.496Z,0.40
2022-08-07T08:11:13.682Z,0.40
2022-08-07T08:13:53.827Z,0.57
2022-08-07T08:16:25.615Z,0.85
2022-08-07T08:18:55.647Z,0.50
2022-08-07T08:21:55.800Z,0.63
2022-08-07T08:24:57.005Z,0.50
2022-08-07T08:27:40.728Z,0.65
2022-08-07T08:30:20.516Z,0.50
2022-08-07T08:32:50.523Z,0.50
2022-08-07T08:35:22.870Z,0.50
2022-08-07T08:38:01.418Z,0.50
2022-08-07T08:40:43.827Z,0.50
2022-08-07T08:43:42.453Z,0.45
2022-08-07T08:46:33.146Z,0.50
2022-08-07T08:49:05.733Z,0.50
2022-08-07T08:52:13.119Z,0.40
2022-08-07T08:54:30.798Z,0.60
2022-08-07T08:56:58.998Z,0.47
2022-08-07T08:59:28.883Z,0.60
2022-08-07T09:02:05.137Z,0.60
2022-08-07T09:04:36.699Z,0.50
2022-08-07T09:07:11.282Z,0.60
2022-08-07T09:09:48.220Z,0.50
2022-08-07T09:12:31.854Z,0.40
2022-08-07T09:14:59.746Z,0.32
2022-08-07T09:17:59.545Z,0.52
2022-08-07T09:20:35.477Z,0.40
2022-08-07T09:26:07.085Z,0.45
2022-08-07T09:30:01.644Z,0.40
2022-08-07T09:31:39.426Z,0.60
2022-08-07T09:34:17.750Z,0.60
2022-08-07T09:36:51.997Z,0.60
2022-08-07T09:39:53.611Z,0.43
2022-08-07T09:42:33.578Z,0.50
2022-08-07T09:47:24.493Z,0.40
2022-08-07T09:48:12.054Z,0.50
2022-08-07T09:50:59.536Z,0.68
2022-08-07T09:53:40.764Z,0.60
2022-08-07T09:56:37.340Z,0.63
2022-08-07T09:59:14.511Z,0.60
2022-08-07T10:01:52.325Z,0.45
2022-08-07T10:04:32.594Z,0.60
2022-08-07T10:07:00.937Z,0.30
2022-08-07T10:10:02.859Z,0.40
2022-08-07T10:12:53.208Z,0.50
2022-08-07T10:15:43.967Z,0.65
2022-08-07T10:18:21.708Z,0.50
2022-08-07T10:21:14.896Z,0.38
2022-08-07T10:24:06.185Z,0.50
2022-08-07T10:26:54.306Z,0.80
2022-08-07T10:29:30.456Z,0.60
2022-08-07T10:31:58.491Z,0.52
2022-08-07T10:34:32.330Z,0.60
2022-08-07T10:37:12.447Z,0.50
2022-08-07T10:40:09.188Z,0.63
2022-08-07T10:42:39.839Z,0.57
2022-08-07T10:45:57.461Z,0.40
2022-08-07T10:48:22.859Z,0.82
2022-08-07T10:51:16.405Z,0.50
2022-08-07T10:54:07.741Z,0.60
2022-08-07T10:56:38.016Z,0.57
2022-08-07T10:59:05.423Z,0.45
2022-08-07T11:01:51.379Z,0.40
2022-08-07T11:04:37.522Z,1.00
2022-08-07T11:07:15.023Z,0.50
2022-08-07T11:10:10.033Z,0.50
2022-08-07T11:12:49.183Z,0.70
2022-08-07T11:15:20.163Z,0.50
2022-08-07T11:18:03.533Z,0.50
2022-08-07T11:20:31.701Z,0.57
2022-08-07T11:23:30.450Z,0.45
2022-08-07T11:26:13.048Z,0.45
2022-08-07T11:28:44.170Z,0.60
2022-08-07T11:31:34.997Z,0.50
2022-08-07T11:34:10.191Z,0.52
2022-08-07T11:36:53.276Z,0.50
2022-08-07T11:39:23.787Z,0.60
2022-08-07T11:42:01.824Z,0.50
2022-08-07T11:44:30.831Z,0.82
2022-08-07T11:47:20.217Z,0.40
2022-08-07T11:50:32.274Z,0.50
2022-08-07T11:52:56.805Z,0.50
2022-08-07T11:56:24.823Z,0.50
2022-08-07T11:58:39.206Z,0.40
2022-08-07T12:01:08.623Z,0.47
2022-08-07T12:03:44.563Z,0.43
2022-08-07T12:06:37.715Z,0.30
2022-08-07T12:09:16.219Z,0.40
2022-08-07T12:12:09.709Z,0.50
2022-08-07T12:14:39.782Z,0.80
2022-08-07T12:17:19.721Z,0.50
2022-08-07T12:20:10.346Z,0.50
2022-08-07T12:23:09.351Z,0.43
2022-08-07T12:26:03.391Z,0.70
2022-08-07T12:29:00.606Z,0.57
2022-08-07T12:31:53.304Z,0.50
2022-08-07T12:34:25.977Z,0.50
2022-08-07T12:36:55.771Z,0.50
2022-08-07T12:39:43.288Z,0.40
2022-08-07T12:42:13.057Z,0.50
2022-08-07T12:44:44.904Z,0.50
2022-08-07T12:47:21.871Z,0.50
2022-08-07T12:50:33.971Z,0.63
2022-08-07T12:53:17.686Z,0.85
2022-08-07T12:56:09.231Z,0.40
2022-08-07T12:58:39.621Z,0.47
2022-08-07T13:01:07.750Z,0.52
2022-08-07T13:04:03.054Z,0.40
2022-08-07T13:07:00.031Z,0.70
2022-08-07T13:10:28.464Z,0.70
2022-08-07T13:12:40.957Z,0.50
2022-08-07T13:15:14.492Z,0.52
2022-08-07T13:17:59.431Z,0.47
2022-08-07T13:20:32.220Z,0.50
2022-08-07T13:23:59.840Z,0.40
2022-08-07T13:26:05.000Z,0.60
2022-08-07T13:28:38.750Z,0.57
2022-08-07T13:31:13.512Z,0.60
2022-08-07T13:36:41.170Z,0.40
2022-08-07T13:39:48.932Z,0.60
2022-08-07T13:42:21.624Z,0.60
2022-08-07T13:44:55.511Z,0.68
2022-08-07T13:48:06.900Z,0.63
2022-08-07T13:50:33.400Z,0.80
2022-08-07T13:53:14.574Z,0.50
2022-08-07T13:55:54.902Z,0.40
2022-08-07T13:58:56.270Z,0.43
2022-08-07T14:01:25.493Z,0.40
2022-08-07T14:04:05.196Z,0.43
2022-08-07T14:06:36.806Z,0.60
2022-08-07T14:09:06.635Z,0.55
2022-08-07T14:11:53.821Z,0.85
2022-08-07T14:14:39.592Z,0.63
2022-08-07T14:17:51.530Z,0.80
2022-08-07T14:20:42.483Z,0.68
2022-08-07T14:22:49.646Z,0.57
2022-08-07T14:25:17.334Z,0.40
2022-08-07T14:28:11.419Z,0.68
2022-08-07T14:30:40.643Z,1.23
2022-08-07T14:33:09.111Z,4.15
2022-08-07T14:35:44.499Z,1.38
2022-08-07T14:38:26.271Z,0.50
2022-08-07T14:41:04.080Z,0.60
2022-08-07T14:43:58.385Z,0.50
2022-08-07T14:49:17.578Z,0.55
2022-08-07T14:52:04.480Z,0.93
2022-08-07T14:54:45.734Z,0.50
2022-08-07T14:57:19.227Z,0.50
2022-08-07T15:05:25.547Z,0.70
2022-08-07T15:07:53.828Z,0.80
2022-08-07T15:10:25.006Z,0.90
2022-08-07T15:13:06.681Z,0.50
2022-08-07T15:15:43.459Z,0.57
2022-08-07T15:25:13.967Z,0.70
2022-08-07T15:27:07.887Z,0.50
2022-08-07T15:32:39.396Z,0.40
2022-08-07T15:36:01.506Z,0.50
2022-08-07T15:41:00.294Z,0.60
2022-08-07T15:43:58.219Z,0.55
2022-08-07T15:49:17.680Z,0.70
2022-08-07T15:54:34.566Z,0.60
2022-08-07T15:57:28.099Z,0.60
2022-08-07T15:59:56.491Z,0.70
2022-08-07T16:02:26.532Z,0.60
2022-08-07T16:05:16.923Z,0.50
2022-08-07T16:08:31.179Z,0.60
2022-08-07T16:10:37.618Z,0.80
2022-08-07T16:13:57.469Z,0.57
2022-08-07T16:16:48.372Z,0.50
2022-08-07T16:19:42.580Z,0.47
2022-08-07T16:22:33.385Z,0.60
2022-08-07T16:25:06.908Z,0.80
2022-08-07T16:27:58.488Z,0.50
2022-08-07T16:30:30.391Z,0.60
2022-08-07T16:32:59.959Z,0.60
2022-08-07T16:36:06.188Z,0.60
2022-08-07T16:39:02.429Z,0.50
2022-08-07T16:41:41.730Z,0.77
2022-08-07T16:44:55.395Z,0.60
2022-08-07T16:47:50.913Z,0.63
2022-08-07T16:50:35.782Z,0.63
2022-08-07T16:54:01.738Z,0.60
2022-08-07T16:56:17.616Z,0.50
2022-08-07T16:59:10.961Z,0.60
2022-08-07T17:01:49.956Z,0.73
2022-08-07T17:04:29.640Z,0.60
2022-08-07T17:07:08.785Z,0.50
2022-08-07T17:10:06.042Z,0.80
2022-08-07T17:12:46.610Z,0.70
2022-08-07T17:15:44.755Z,0.65
2022-08-07T17:18:23.347Z,0.60
2022-08-07T17:20:54.784Z,0.60
2022-08-07T17:23:41.551Z,0.70
2022-08-07T17:26:23.363Z,0.40
2022-08-07T17:29:18.333Z,0.50
2022-08-07T17:32:30.760Z,0.60
2022-08-07T17:35:50.983Z,0.60
2022-08-07T17:38:08.192Z,0.45
2022-08-07T17:40:50.411Z,0.70
2022-08-07T17:44:01.608Z,0.40
2022-08-07T17:46:21.462Z,0.90
2022-08-07T17:49:09.479Z,0.60
2022-08-07T17:54:29.720Z,0.57
2022-08-07T17:57:18.646Z,0.40
2022-08-07T17:59:50.637Z,0.60
2022-08-07T18:02:23.206Z,0.90
2022-08-07T18:05:22.121Z,0.60
2022-08-07T18:08:24.506Z,0.50
2022-08-07T18:12:08.249Z,0.60
2022-08-07T18:14:05.944Z,0.50
2022-08-07T18:16:58.820Z,0.57
2022-08-07T18:21:10.556Z,0.63
2022-08-07T18:22:28.706Z,0.75
2022-08-07T18:25:19.033Z,0.60
2022-08-07T18:28:02.912Z,0.57
2022-08-07T18:30:53.485Z,0.82
2022-08-07T18:33:35.736Z,0.52
2022-08-07T18:36:14.148Z,0.73
2022-08-07T18:40:07.164Z,0.70
2022-08-07T18:42:07.817Z,0.85
2022-08-07T18:45:43.909Z,0.73
2022-08-07T18:47:45.183Z,0.70
2022-08-07T18:50:40.595Z,0.57
2022-08-07T18:53:13.865Z,0.90
2022-08-07T18:56:00.101Z,0.47
2022-08-07T18:58:35.563Z,0.70
2022-08-07T19:01:03.798Z,0.85
2022-08-07T19:03:41.650Z,0.60
2022-08-07T19:06:33.845Z,0.52
2022-08-07T19:09:56.176Z,0.50
2022-08-07T19:12:18.917Z,0.50
2022-08-07T19:16:03.004Z,0.70
2022-08-07T19:18:03.255Z,0.52
2022-08-07T19:20:39.682Z,0.93
2022-08-07T19:23:57.067Z,0.73
2022-08-07T19:26:22.999Z,0.60
2022-08-07T19:30:53.945Z,0.57
2022-08-07T19:32:17.066Z,0.80
2022-08-07T19:34:55.414Z,0.65
2022-08-07T19:37:24.316Z,1.02
2022-08-07T19:40:12.978Z,0.70
2022-08-07T19:42:45.749Z,0.70
2022-08-07T19:46:01.152Z,0.70
2022-08-07T19:48:18.985Z,0.90
2022-08-07T19:50:53.374Z,0.70
2022-08-07T19:54:31.491Z,0.90
2022-08-07T19:56:59.718Z,0.70
2022-08-07T19:58:58.583Z,0.60
2022-08-07T20:01:56.255Z,0.50
2022-08-07T20:04:31.843Z,0.73
2022-08-07T20:07:09.107Z,0.98
2022-08-07T20:10:35.218Z,0.98
2022-08-07T20:12:38.331Z,0.63
2022-08-07T20:15:15.512Z,0.60
2022-08-07T20:17:56.266Z,0.70
2022-08-07T20:20:31.818Z,0.70
2022-08-07T20:23:01.831Z,0.90
2022-08-07T20:25:50.914Z,0.70
2022-08-07T20:28:20.728Z,0.77
2022-08-07T20:30:58.230Z,1.00
2022-08-07T20:33:37.803Z,0.75
2022-08-07T20:36:07.288Z,0.82
2022-08-07T20:38:35.679Z,0.70
2022-08-07T20:41:34.089Z,1.00
2022-08-07T20:44:05.882Z,0.98
2022-08-07T20:46:44.261Z,0.80
2022-08-07T20:49:59.230Z,1.08
2022-08-07T20:52:00.897Z,1.00
2022-08-07T20:54:29.588Z,1.25
2022-08-07T20:57:00.660Z,1.00
2022-08-07T21:00:06.190Z,1.15
2022-08-07T21:02:39.836Z,1.27
2022-08-07T21:05:16.635Z,0.95
2022-08-07T21:07:49.567Z,0.90
2022-08-07T21:10:25.138Z,1.10
2022-08-07T21:13:00.471Z,1.02
2022-08-07T21:15:47.834Z,1.00
2022-08-07T21:18:25.825Z,0.90
2022-08-07T21:20:57.411Z,0.90
2022-08-07T21:23:36.050Z,0.90
2022-08-07T21:26:26.848Z,1.65
2022-08-07T21:29:04.271Z,1.00
2022-08-07T21:32:10.981Z,1.10
2022-08-07T21:34:49.088Z,1.05
2022-08-07T21:37:22.705Z,1.10
2022-08-07T21:39:51.572Z,1.25
2022-08-07T21:42:42.205Z,1.10
2022-08-07T21:46:09.225Z,1.10
2022-08-07T21:48:27.671Z,0.88
2022-08-07T21:51:24.771Z,1.45
2022-08-07T21:53:54.249Z,1.30
2022-08-07T21:56:47.909Z,1.17
2022-08-07T22:00:02.762Z,1.42
2022-08-07T22:02:39.431Z,0.98
2022-08-07T22:05:21.823Z,1.08
2022-08-07T22:07:59.858Z,1.17
2022-08-07T22:10:33.763Z,1.30
2022-08-07T22:13:05.968Z,1.10
2022-08-07T22:16:39.738Z,1.17
2022-08-07T22:18:33.888Z,1.13
2022-08-07T22:21:08.999Z,1.20
2022-08-07T22:23:44.979Z,1.20
2022-08-07T22:26:15.201Z,1.23
2022-08-07T22:28:52.953Z,1.30
2022-08-07T22:31:45.557Z,1.52
2022-08-07T22:34:13.831Z,1.30
2022-08-07T22:36:58.944Z,1.00
2022-08-07T22:39:35.217Z,1.15
2022-08-07T22:42:25.556Z,1.20
2022-08-07T22:44:58.937Z,1.40
2022-08-07T22:47:49.480Z,1.13
2022-08-07T22:50:39.014Z,1.20
2022-08-07T22:53:06.330Z,1.60
2022-08-07T22:55:52.956Z,1.10
2022-08-07T22:58:39.175Z,1.30
2022-08-07T23:01:41.831Z,1.30
2022-08-07T23:04:16.286Z,1.38
2022-08-07T23:06:43.733Z,1.60
2022-08-07T23:10:06.493Z,1.52
2022-08-07T23:12:06.587Z,1.40
2022-08-07T23:14:38.965Z,1.50
2022-08-07T23:17:26.632Z,1.55
2022-08-07T23:20:51.744Z,1.63
2022-08-07T23:23:11.523Z,1.17
2022-08-07T23:25:42.610Z,1.63
2022-08-07T23:28:29.446Z,1.33
2022-08-07T23:31:42.906Z,1.30
2022-08-07T23:34:34.963Z,1.30
2022-08-07T23:37:18.733Z,1.55
2022-08-07T23:39:48.002Z,1.30
2022-08-07T23:44:53.271Z,1.30
2022-08-07T23:47:53.419Z,1.08
2022-08-07T23:50:37.536Z,1.30
2022-08-07T23:53:49.515Z,1.40
2022-08-07T23:56:21.029Z,1.40
2022-08-07T23:58:49.054Z,1.30
